createdAt,value
2018-10-11T00:01:56.808Z,89.36
2018-10-11T00:04:26.622Z,89.41
2018-10-11T00:06:56.601Z,89.00
2018-10-11T00:09:26.570Z,89.65
2018-10-11T00:11:56.375Z,89.30
2018-10-11T00:14:26.225Z,88.59
2018-10-11T00:16:56.076Z,88.73
2018-10-11T00:19:25.918Z,88.20
2018-10-11T00:21:55.829Z,88.59
2018-10-11T00:24:25.632Z,88.71
2018-10-11T00:26:55.461Z,87.47
2018-10-11T00:29:25.669Z,87.70
2018-10-11T00:31:55.476Z,87.35
2018-10-11T00:34:25.251Z,86.31
2018-10-11T00:36:55.406Z,86.20
2018-10-11T00:39:25.241Z,86.84
2018-10-11T00:41:55.163Z,86.21
2018-10-11T00:44:24.968Z,86.13
2018-10-11T00:46:54.710Z,86.55
2018-10-11T00:49:24.702Z,86.74
2018-10-11T00:51:54.611Z,86.37
2018-10-11T00:54:24.483Z,86.02
2018-10-11T00:56:54.246Z,86.15
2018-10-11T00:59:24.117Z,86.87
2018-10-11T01:01:53.920Z,86.91
2018-10-11T01:04:23.725Z,86.75
2018-10-11T01:06:53.564Z,87.40
2018-10-11T01:09:23.490Z,87.40
2018-10-11T01:11:53.541Z,87.54
2018-10-11T01:14:23.333Z,87.51
2018-10-11T01:16:53.177Z,87.70
2018-10-11T01:19:22.989Z,87.23
2018-10-11T01:21:52.831Z,87.78
2018-10-11T01:24:22.787Z,88.09
2018-10-11T01:26:52.588Z,87.57
2018-10-11T01:29:22.402Z,87.51
2018-10-11T01:31:52.588Z,86.51
2018-10-11T01:34:22.448Z,85.88
2018-10-11T01:36:52.410Z,86.47
2018-10-11T01:39:22.593Z,87.67
2018-10-11T01:41:52.687Z,88.01
2018-10-11T01:44:22.509Z,87.77
2018-10-11T01:46:52.298Z,88.64
2018-10-11T01:49:22.336Z,89.17
2018-10-11T01:51:52.111Z,90.04
2018-10-11T01:54:21.924Z,89.70
2018-10-11T01:56:52.406Z,90.34
2018-10-11T01:59:22.314Z,89.68
2018-10-11T02:01:52.107Z,88.65
2018-10-11T02:04:22.113Z,89.22
2018-10-11T02:06:51.902Z,88.81
2018-10-11T02:09:21.758Z,88.02
2018-10-11T02:11:51.722Z,88.20
2018-10-11T02:14:21.545Z,88.76
2018-10-11T02:16:51.407Z,88.82
2018-10-11T02:19:21.234Z,87.77
2018-10-11T02:21:51.042Z,88.06
2018-10-11T02:24:20.809Z,88.29
2018-10-11T02:26:50.590Z,88.96
2018-10-11T02:29:20.361Z,90.07
2018-10-11T02:31:50.186Z,90.13
2018-10-11T02:34:20.174Z,89.90
2018-10-11T02:36:49.960Z,90.47
2018-10-11T02:39:19.946Z,89.59
2018-10-11T02:41:49.752Z,89.80
2018-10-11T02:44:19.596Z,89.24
2018-10-11T02:46:49.433Z,89.45
2018-10-11T02:49:19.270Z,88.44
2018-10-11T02:51:49.082Z,89.50
2018-10-11T02:54:18.920Z,89.08
2018-10-11T02:56:49.048Z,89.47
2018-10-11T02:59:37.150Z,88.95
2018-10-11T03:02:12.560Z,88.91
2018-10-11T03:04:43.894Z,89.00
2018-10-11T03:07:13.790Z,89.10
2018-10-11T03:09:44.082Z,89.45
2018-10-11T03:12:13.966Z,88.42
2018-10-11T03:16:12.808Z,89.05
2018-10-11T03:18:42.624Z,89.82
2018-10-11T03:21:12.468Z,90.15
2018-10-11T03:23:42.294Z,90.34
2018-10-11T03:26:12.114Z,90.68
2018-10-11T03:28:41.960Z,90.62
2018-10-11T03:31:11.779Z,89.96
2018-10-11T03:33:41.603Z,89.85
2018-10-11T03:36:11.453Z,89.67
2018-10-11T03:38:41.189Z,89.60
2018-10-11T03:41:10.927Z,90.12
2018-10-11T03:43:40.736Z,89.86
2018-10-11T03:46:11.097Z,88.93
2018-10-11T03:48:40.963Z,88.36
2018-10-11T03:51:10.779Z,88.64
2018-10-11T03:53:40.612Z,88.22
2018-10-11T03:56:10.409Z,88.09
2018-10-11T03:58:40.316Z,88.40
2018-10-11T04:01:10.192Z,88.33
2018-10-11T04:03:40.093Z,88.92
2018-10-11T04:06:10.007Z,87.71
2018-10-11T04:08:39.971Z,88.76
2018-10-11T04:11:09.773Z,88.63
2018-10-11T04:13:39.557Z,87.83
2018-10-11T04:16:09.364Z,87.04
2018-10-11T04:18:39.470Z,86.16
2018-10-11T04:21:09.781Z,87.32
2018-10-11T04:23:39.717Z,87.48
2018-10-11T04:26:09.564Z,88.18
2018-10-11T04:28:39.623Z,88.65
2018-10-11T04:31:09.777Z,88.55
2018-10-11T04:33:39.649Z,88.49
2018-10-11T04:36:09.493Z,88.08
2018-10-11T04:38:39.458Z,87.99
2018-10-11T04:41:09.583Z,87.87
2018-10-11T04:43:39.402Z,87.47
2018-10-11T04:46:09.641Z,87.63
2018-10-11T04:48:39.451Z,88.12
2018-10-11T04:51:09.336Z,88.27
2018-10-11T04:53:39.244Z,88.43
2018-10-11T04:56:09.292Z,89.12
2018-10-11T04:58:39.258Z,88.92
2018-10-11T05:01:09.042Z,88.86
2018-10-11T05:03:38.862Z,89.08
2018-10-11T05:06:08.691Z,87.81
2018-10-11T05:08:38.484Z,87.87
2018-10-11T05:11:08.903Z,87.82
2018-10-11T05:13:44.528Z,87.95
2018-10-11T05:16:15.503Z,88.12
2018-10-11T05:19:03.828Z,88.15
2018-10-11T05:21:33.791Z,88.09
2018-10-11T05:24:03.825Z,87.99
2018-10-11T05:26:33.694Z,88.63
2018-10-11T05:29:03.540Z,88.73
2018-10-11T05:31:33.373Z,88.05
2018-10-11T05:34:03.339Z,88.38
2018-10-11T05:36:33.120Z,88.04
2018-10-11T05:39:02.993Z,88.39
2018-10-11T05:41:33.505Z,88.35
2018-10-11T05:44:03.497Z,88.25
2018-10-11T05:46:34.710Z,88.39
2018-10-11T05:49:06.463Z,88.13
2018-10-11T05:51:36.697Z,87.92
2018-10-11T05:54:07.538Z,88.33
2018-10-11T05:56:41.118Z,88.40
2018-10-11T05:59:11.774Z,88.49
2018-10-11T06:01:41.621Z,88.00
2018-10-11T06:04:12.593Z,87.74
2018-10-11T06:06:44.431Z,87.82
2018-10-11T06:09:14.307Z,87.24
2018-10-11T06:11:45.129Z,87.42
2018-10-11T06:14:15.991Z,87.10
2018-10-11T06:16:46.562Z,87.31
2018-10-11T06:19:16.480Z,87.54
2018-10-11T06:21:46.319Z,87.45
2018-10-11T06:24:16.127Z,86.52
2018-10-11T06:26:45.949Z,86.34
2018-10-11T06:29:15.885Z,86.59
2018-10-11T06:31:45.751Z,86.78
2018-10-11T06:34:15.615Z,86.83
2018-10-11T06:36:45.518Z,86.74
2018-10-11T06:39:15.353Z,86.96
2018-10-11T06:41:45.265Z,86.80
2018-10-11T06:44:15.279Z,86.71
2018-10-11T06:46:45.702Z,86.81
2018-10-11T06:49:15.713Z,86.31
2018-10-11T06:51:45.642Z,86.04
2018-10-11T06:54:15.447Z,86.22
2018-10-11T06:56:45.236Z,86.29
2018-10-11T06:59:15.026Z,86.90
2018-10-11T07:01:44.848Z,86.95
2018-10-11T07:04:14.805Z,86.36
2018-10-11T07:06:44.562Z,86.77
2018-10-11T07:09:14.358Z,86.48
2018-10-11T07:11:44.154Z,85.83
2018-10-11T07:14:13.951Z,86.34
2018-10-11T07:16:43.709Z,86.68
2018-10-11T07:19:13.607Z,87.06
2018-10-11T07:21:43.611Z,86.48
2018-10-11T07:24:14.578Z,86.56
2018-10-11T07:26:44.472Z,86.31
2018-10-11T07:29:14.268Z,86.11
2018-10-11T07:31:44.124Z,86.01
2018-10-11T07:34:13.888Z,85.94
2018-10-11T07:36:43.642Z,85.91
2018-10-11T07:39:14.053Z,85.52
2018-10-11T07:41:44.164Z,85.20
2018-10-11T07:44:13.970Z,84.64
2018-10-11T07:46:43.804Z,84.11
2018-10-11T07:49:13.610Z,83.44
2018-10-11T07:51:43.465Z,82.97
2018-10-11T07:54:13.248Z,82.43
2018-10-11T07:56:43.040Z,81.91
2018-10-11T07:59:12.810Z,81.56
2018-10-11T08:01:42.719Z,79.50
2018-10-11T08:04:12.695Z,79.26
2018-10-11T08:06:42.596Z,78.77
2018-10-11T08:09:12.384Z,79.13
2018-10-11T08:11:42.575Z,78.69
2018-10-11T08:14:12.517Z,77.67
2018-10-11T08:16:42.435Z,77.07
2018-10-11T08:19:12.658Z,76.00
2018-10-11T08:21:42.520Z,75.48
2018-10-11T08:24:12.501Z,75.60
2018-10-11T08:26:42.534Z,74.30
2018-10-11T08:29:12.459Z,74.84
2018-10-11T08:31:42.282Z,74.31
2018-10-11T08:34:12.926Z,75.09
2018-10-11T08:36:42.715Z,75.06
2018-10-11T08:39:13.864Z,74.49
2018-10-11T08:41:43.667Z,74.07
2018-10-11T08:44:14.153Z,75.42
2018-10-11T08:46:44.537Z,75.56
2018-10-11T08:49:14.342Z,75.69
2018-10-11T08:51:44.402Z,75.09
2018-10-11T08:54:19.400Z,74.70
2018-10-11T08:56:49.215Z,75.12
2018-10-11T08:59:19.115Z,75.94
2018-10-11T09:01:48.975Z,74.15
2018-10-11T09:04:18.849Z,73.61
2018-10-11T09:06:48.747Z,72.85
2018-10-11T09:09:18.498Z,73.13
2018-10-11T09:11:48.297Z,71.82
2018-10-11T09:14:18.133Z,71.26
2018-10-11T09:16:47.945Z,71.21
2018-10-11T09:19:17.753Z,71.65
2018-10-11T09:21:47.719Z,72.74
2018-10-11T09:24:17.503Z,72.32
2018-10-11T09:26:47.431Z,72.66
2018-10-11T09:29:17.209Z,72.99
2018-10-11T09:31:46.969Z,73.16
2018-10-11T09:34:16.734Z,72.49
2018-10-11T09:36:46.527Z,73.28
2018-10-11T09:39:16.306Z,73.57
2018-10-11T09:41:46.249Z,73.91
2018-10-11T09:44:16.043Z,74.79
2018-10-11T09:46:45.839Z,73.44
2018-10-11T09:49:15.608Z,73.10
2018-10-11T09:51:45.363Z,71.92
2018-10-11T09:54:15.264Z,73.30
2018-10-11T09:57:51.139Z,72.73
2018-10-11T10:00:26.139Z,73.04
2018-10-11T10:02:55.925Z,73.16
2018-10-11T10:05:25.727Z,72.43
2018-10-11T10:07:55.469Z,72.94
2018-10-11T10:10:25.267Z,72.83
2018-10-11T10:12:55.057Z,72.86
2018-10-11T10:15:24.908Z,72.66
2018-10-11T10:17:54.879Z,72.96
2018-10-11T10:20:24.645Z,73.22
2018-10-11T10:22:54.422Z,72.53
2018-10-11T10:25:24.205Z,72.39
2018-10-11T10:27:54.051Z,73.20
2018-10-11T10:30:29.097Z,72.11
2018-10-11T10:32:59.463Z,71.55
2018-10-11T10:35:29.327Z,71.94
2018-10-11T10:37:59.123Z,71.75
2018-10-11T10:40:28.913Z,71.60
2018-10-11T10:42:58.703Z,72.39
2018-10-11T10:45:28.541Z,71.64
2018-10-11T10:47:58.327Z,71.90
2018-10-11T10:50:28.081Z,71.71
2018-10-11T10:52:57.845Z,70.76
2018-10-11T10:55:27.964Z,70.67
2018-10-11T10:57:57.860Z,71.30
2018-10-11T11:00:27.655Z,71.39
2018-10-11T11:02:57.414Z,71.46
2018-10-11T11:05:27.213Z,71.00
2018-10-11T11:07:57.040Z,71.19
2018-10-11T11:10:26.801Z,70.03
2018-10-11T11:12:56.542Z,70.78
2018-10-11T11:15:26.920Z,70.38
2018-10-11T11:17:57.231Z,70.38
2018-10-11T11:20:27.674Z,69.94
2018-10-11T11:23:20.444Z,69.38
2018-10-11T11:25:50.854Z,69.50
2018-10-11T11:28:20.634Z,69.45
2018-10-11T11:30:51.156Z,69.12
2018-10-11T11:33:21.110Z,68.77
2018-10-11T11:35:51.484Z,68.52
2018-10-11T11:38:21.812Z,68.17
2018-10-11T11:40:52.214Z,68.32
2018-10-11T11:43:22.750Z,68.61
2018-10-11T11:45:53.188Z,68.19
2018-10-11T11:48:23.710Z,67.44
2018-10-11T11:50:54.118Z,67.67
2018-10-11T11:53:24.540Z,67.21
2018-10-11T11:55:54.880Z,68.01
2018-10-11T11:58:25.247Z,66.50
2018-10-11T12:00:55.632Z,66.71
2018-10-11T12:03:25.998Z,66.09
2018-10-11T12:05:56.364Z,65.90
2018-10-11T12:08:26.714Z,65.82
2018-10-11T12:10:57.258Z,65.32
2018-10-11T12:13:27.598Z,64.95
2018-10-11T12:15:57.960Z,65.55
2018-10-11T12:18:28.320Z,66.95
2018-10-11T12:20:58.691Z,67.38
2018-10-11T12:23:29.025Z,66.27
2018-10-11T12:25:59.429Z,66.92
2018-10-11T12:28:29.876Z,66.74
2018-10-11T12:31:00.384Z,66.71
2018-10-11T12:33:30.685Z,67.04
2018-10-11T12:36:01.080Z,66.80
2018-10-11T12:38:31.447Z,67.41
2018-10-11T12:41:02.081Z,67.04
2018-10-11T12:43:32.438Z,66.97
2018-10-11T12:46:02.951Z,67.07
2018-10-11T12:48:33.590Z,67.23
2018-10-11T12:51:04.029Z,67.65
2018-10-11T12:53:34.391Z,68.13
2018-10-11T12:56:04.781Z,66.71
2018-10-11T12:58:35.136Z,65.46
2018-10-11T13:01:06.112Z,66.24
2018-10-11T13:03:36.599Z,68.67
2018-10-11T13:06:06.963Z,71.10
2018-10-11T13:08:37.313Z,71.68
2018-10-11T13:11:07.695Z,72.50
2018-10-11T13:13:37.563Z,74.11
2018-10-11T13:16:07.351Z,74.58
2018-10-11T13:18:37.058Z,74.77
2018-10-11T13:21:06.858Z,75.75
2018-10-11T13:23:36.625Z,75.65
2018-10-11T13:26:06.383Z,76.66
2018-10-11T13:28:36.183Z,76.73
2018-10-11T13:31:06.127Z,76.51
2018-10-11T13:33:35.899Z,76.46
2018-10-11T13:36:05.685Z,76.67
2018-10-11T13:38:35.489Z,77.45
2018-10-11T13:41:05.374Z,78.01
2018-10-11T13:43:35.299Z,77.82
2018-10-11T13:46:05.145Z,78.30
2018-10-11T13:48:35.090Z,77.21
2018-10-11T13:51:04.912Z,77.21
2018-10-11T13:53:35.225Z,77.37
2018-10-11T13:56:04.995Z,77.99
2018-10-11T13:58:34.771Z,78.43
2018-10-11T14:01:04.951Z,79.04
2018-10-11T14:03:34.699Z,80.01
2018-10-11T14:06:04.604Z,80.15
2018-10-11T14:08:34.453Z,80.62
2018-10-11T14:11:04.271Z,81.60
2018-10-11T14:13:34.093Z,81.71
2018-10-11T14:16:03.927Z,81.42
2018-10-11T14:18:33.715Z,80.77
2018-10-11T14:21:03.691Z,81.37
2018-10-11T14:23:33.562Z,81.01
2018-10-11T14:26:03.612Z,80.55
2018-10-11T14:28:33.479Z,81.16
2018-10-11T14:31:03.277Z,80.55
2018-10-11T14:33:33.100Z,81.69
2018-10-11T14:36:03.101Z,80.72
2018-10-11T14:38:32.852Z,80.83
2018-10-11T14:41:02.728Z,80.22
2018-10-11T14:43:32.564Z,79.19
2018-10-11T14:46:02.489Z,79.16
2018-10-11T14:48:32.419Z,78.65
2018-10-11T14:51:02.248Z,78.71
2018-10-11T14:53:32.237Z,77.49
2018-10-11T14:56:02.036Z,77.48
2018-10-11T14:58:32.019Z,76.53
2018-10-11T15:01:02.116Z,75.95
2018-10-11T15:03:32.063Z,75.63
2018-10-11T15:06:01.851Z,74.40
2018-10-11T15:08:31.686Z,74.09
2018-10-11T15:11:01.756Z,73.96
2018-10-11T15:13:31.721Z,74.28
2018-10-11T15:16:01.545Z,73.50
2018-10-11T15:18:31.328Z,73.86
2018-10-11T15:21:01.131Z,73.42
2018-10-11T15:23:30.906Z,73.93
2018-10-11T15:26:00.682Z,73.67
2018-10-11T15:28:31.076Z,73.31
2018-10-11T15:31:01.439Z,72.53
2018-10-11T15:33:31.204Z,73.81
2018-10-11T15:36:00.962Z,74.18
2018-10-11T15:38:30.827Z,74.76
2018-10-11T15:41:00.581Z,74.83
2018-10-11T15:43:30.396Z,74.97
2018-10-11T15:46:00.833Z,74.71
2018-10-11T15:48:30.647Z,74.62
2018-10-11T15:51:00.435Z,74.97
2018-10-11T15:53:30.329Z,75.76
2018-10-11T15:56:00.079Z,76.26
2018-10-11T15:58:29.929Z,76.63
2018-10-11T16:00:59.954Z,77.14
2018-10-11T16:03:29.727Z,77.13
2018-10-11T16:05:59.604Z,76.36
2018-10-11T16:08:29.419Z,76.34
2018-10-11T16:10:59.244Z,77.04
2018-10-11T16:13:29.014Z,76.46
2018-10-11T16:15:58.835Z,76.59
2018-10-11T16:18:28.696Z,77.03
2018-10-11T16:20:58.468Z,77.09
2018-10-11T16:23:29.044Z,77.22
2018-10-11T16:25:58.835Z,77.13
2018-10-11T16:28:28.610Z,77.46
2018-10-11T16:30:58.497Z,76.95
2018-10-11T16:33:28.291Z,77.68
2018-10-11T16:35:58.063Z,77.67
2018-10-11T16:38:27.863Z,77.51
2018-10-11T16:40:58.016Z,78.13
2018-10-11T16:43:27.815Z,78.50
2018-10-11T16:45:57.615Z,78.63
2018-10-11T16:48:27.487Z,79.10
2018-10-11T16:50:57.318Z,79.78
2018-10-11T16:53:27.190Z,80.04
2018-10-11T16:55:56.923Z,80.17
2018-10-11T16:58:26.731Z,80.87
2018-10-11T17:00:58.193Z,81.11
2018-10-11T17:03:28.091Z,81.95
2018-10-11T17:05:57.927Z,82.00
2018-10-11T17:08:27.716Z,82.12
2018-10-11T17:10:57.503Z,82.16
2018-10-11T17:13:27.297Z,82.36
2018-10-11T17:16:27.926Z,82.97
2018-10-11T17:18:57.768Z,82.86
2018-10-11T17:21:27.886Z,83.56
2018-10-11T17:23:57.798Z,83.54
2018-10-11T17:26:27.730Z,83.58
2018-10-11T17:28:57.496Z,83.50
2018-10-11T17:31:27.237Z,83.66
2018-10-11T17:33:57.038Z,83.69
2018-10-11T17:36:26.798Z,83.99
2018-10-11T17:38:56.888Z,83.83
2018-10-11T17:41:26.669Z,84.13
2018-10-11T17:43:56.527Z,85.33
2018-10-11T17:46:26.460Z,85.03
2018-10-11T17:48:56.242Z,85.06
2018-10-11T17:52:27.429Z,85.54
2018-10-11T17:54:58.350Z,85.30
2018-10-11T17:57:28.269Z,85.23
2018-10-11T17:59:58.056Z,85.44
2018-10-11T18:02:27.882Z,85.91
2018-10-11T18:04:57.669Z,85.25
2018-10-11T18:07:27.508Z,84.97
2018-10-11T18:09:57.358Z,85.34
2018-10-11T18:12:27.310Z,85.92
2018-10-11T18:14:57.092Z,85.60
2018-10-11T18:17:26.954Z,86.32
2018-10-11T18:19:56.784Z,85.69
2018-10-11T18:22:26.596Z,86.32
2018-10-11T18:24:56.379Z,86.42
2018-10-11T18:27:26.167Z,86.44
2018-10-11T18:29:56.026Z,85.81
2018-10-11T18:32:25.812Z,86.18
2018-10-11T18:34:55.698Z,86.21
2018-10-11T18:37:25.548Z,87.00
2018-10-11T18:39:55.322Z,86.84
2018-10-11T18:42:25.104Z,87.45
2018-10-11T18:44:54.923Z,87.03
2018-10-11T18:47:24.837Z,87.33
2018-10-11T18:49:54.843Z,87.79
2018-10-11T18:52:24.663Z,88.08
2018-10-11T18:54:54.662Z,88.01
2018-10-11T18:57:24.487Z,87.96
2018-10-11T18:59:54.257Z,87.62
2018-10-11T19:02:24.047Z,86.27
2018-10-11T19:04:53.799Z,85.70
2018-10-11T19:07:23.624Z,86.14
2018-10-11T19:09:53.467Z,86.34
2018-10-11T19:12:23.254Z,86.51
2018-10-11T19:14:53.083Z,87.04
2018-10-11T19:17:22.831Z,86.56
2018-10-11T19:19:52.608Z,86.66
2018-10-11T19:22:22.427Z,86.13
2018-10-11T19:24:52.235Z,85.39
2018-10-11T19:27:22.113Z,85.36
2018-10-11T19:29:51.919Z,86.48
2018-10-11T19:32:21.723Z,87.01
2018-10-11T19:34:51.488Z,87.16
2018-10-11T19:37:21.301Z,87.74
2018-10-11T19:39:51.107Z,88.14
2018-10-11T19:42:20.867Z,88.57
2018-10-11T19:44:50.635Z,88.71
2018-10-11T19:47:20.439Z,89.04
2018-10-11T19:49:50.232Z,89.25
2018-10-11T19:52:20.046Z,89.82
2018-10-11T19:54:49.963Z,89.25
2018-10-11T19:57:19.785Z,89.56
2018-10-11T19:59:49.562Z,89.24
2018-10-11T20:02:19.343Z,88.89
2018-10-11T20:04:49.278Z,89.43
2018-10-11T20:07:19.107Z,88.60
2018-10-11T20:09:48.927Z,87.73
2018-10-11T20:12:18.770Z,87.58
2018-10-11T20:14:48.547Z,87.19
2018-10-11T20:17:18.726Z,88.12
2018-10-11T20:19:48.660Z,87.97
2018-10-11T20:22:18.466Z,88.67
2018-10-11T20:24:48.263Z,88.71
2018-10-11T20:27:18.088Z,89.37
2018-10-11T20:29:47.879Z,89.15
2018-10-11T20:32:17.765Z,88.66
2018-10-11T20:34:47.579Z,88.32
2018-10-11T20:37:17.388Z,87.91
2018-10-11T20:39:47.205Z,87.08
2018-10-11T20:42:16.989Z,87.97
2018-10-11T20:44:46.788Z,87.81
2018-10-11T20:47:16.586Z,87.81
2018-10-11T20:49:46.371Z,87.92
2018-10-11T20:52:16.243Z,88.11
2018-10-11T20:54:46.314Z,88.38
2018-10-11T20:57:16.169Z,88.41
2018-10-11T20:59:46.164Z,89.25
2018-10-11T21:02:16.005Z,89.24
2018-10-11T21:04:45.846Z,89.33
2018-10-11T21:07:15.652Z,89.46
2018-10-11T21:09:45.461Z,89.45
2018-10-11T21:12:15.289Z,89.23
2018-10-11T21:14:45.069Z,89.71
2018-10-11T21:17:15.386Z,90.12
2018-10-11T21:19:45.216Z,89.85
2018-10-11T21:22:15.360Z,89.35
2018-10-11T21:24:45.175Z,89.28
2018-10-11T21:27:15.074Z,89.25
2018-10-11T21:29:44.830Z,88.99
2018-10-11T21:32:14.642Z,89.06
2018-10-11T21:34:44.460Z,88.62
2018-10-11T21:37:14.309Z,89.06
2018-10-11T21:39:44.600Z,89.16
2018-10-11T21:42:15.140Z,89.31
2018-10-11T21:44:45.112Z,89.62
2018-10-11T21:47:15.070Z,89.89
2018-10-11T21:49:45.104Z,89.84
2018-10-11T21:52:15.088Z,90.18
2018-10-11T21:54:44.890Z,90.39
2018-10-11T21:57:14.687Z,90.36
2018-10-11T21:59:44.545Z,90.91
2018-10-11T22:02:14.541Z,90.49
2018-10-11T22:04:44.388Z,90.54
2018-10-11T22:07:14.202Z,90.69
2018-10-11T22:09:43.978Z,90.59
2018-10-11T22:12:13.842Z,89.98
2018-10-11T22:14:43.753Z,89.80
2018-10-11T22:17:13.857Z,89.88
2018-10-11T22:19:43.657Z,89.99
2018-10-11T22:22:13.537Z,90.67
2018-10-11T22:24:43.412Z,90.73
2018-10-11T22:27:13.702Z,90.03
2018-10-11T22:29:43.554Z,90.04
2018-10-11T22:32:13.440Z,90.04
2018-10-11T22:34:43.246Z,90.55
2018-10-11T22:37:13.119Z,89.98
2018-10-11T22:39:43.253Z,90.49
2018-10-11T22:42:13.476Z,90.86
2018-10-11T22:44:43.702Z,91.12
2018-10-11T22:47:13.531Z,91.12
2018-10-11T22:49:43.340Z,91.41
2018-10-11T22:52:13.287Z,91.64
2018-10-11T22:54:43.158Z,91.79
2018-10-11T22:57:13.142Z,91.35
2018-10-11T22:59:42.986Z,91.51
2018-10-11T23:02:12.802Z,91.02
2018-10-11T23:04:42.642Z,90.31
2018-10-11T23:07:12.508Z,90.02
2018-10-11T23:09:42.381Z,90.59
2018-10-11T23:12:12.422Z,90.59
2018-10-11T23:14:42.477Z,90.60
2018-10-11T23:17:12.464Z,90.95
2018-10-11T23:19:42.352Z,90.63
2018-10-11T23:22:12.205Z,90.35
2018-10-11T23:24:42.054Z,91.08
2018-10-11T23:27:12.042Z,91.09
2018-10-11T23:29:42.077Z,91.08
2018-10-11T23:32:12.040Z,91.27
2018-10-11T23:34:41.940Z,91.26
2018-10-11T23:37:11.772Z,91.27
2018-10-11T23:39:41.772Z,91.08
2018-10-11T23:42:11.728Z,91.12
2018-10-11T23:44:41.600Z,91.00
2018-10-11T23:47:11.497Z,90.56
2018-10-11T23:49:41.324Z,90.50
2018-10-11T23:52:11.198Z,90.22
2018-10-11T23:54:41.188Z,89.52
2018-10-11T23:57:11.268Z,89.09
2018-10-11T23:59:41.091Z,88.99
